createdAt,value
2022-10-20T00:04:18.159Z,3.67
2022-10-20T00:06:44.574Z,3.22
2022-10-20T00:09:11.419Z,3.30
2022-10-20T00:11:38.298Z,3.40
2022-10-20T00:14:05.042Z,3.10
2022-10-20T00:16:35.003Z,3.40
2022-10-20T00:19:01.403Z,3.10
2022-10-20T00:21:29.050Z,3.40
2022-10-20T00:23:55.767Z,3.30
2022-10-20T00:26:24.909Z,3.03
2022-10-20T00:28:52.716Z,3.35
2022-10-20T00:31:20.614Z,3.60
2022-10-20T00:33:47.419Z,3.15
2022-10-20T00:36:17.743Z,2.97
2022-10-20T00:38:44.288Z,3.05
2022-10-20T00:41:14.595Z,2.95
2022-10-20T00:43:51.476Z,2.65
2022-10-20T00:46:21.593Z,2.92
2022-10-20T00:48:51.686Z,3.00
2022-10-20T00:51:22.906Z,2.55
2022-10-20T00:53:53.519Z,2.53
2022-10-20T00:56:20.660Z,2.78
2022-10-20T00:58:47.470Z,2.40
2022-10-20T01:01:14.681Z,3.60
2022-10-20T01:03:50.217Z,3.45
2022-10-20T01:06:19.439Z,3.53
2022-10-20T01:08:46.015Z,3.22
2022-10-20T01:11:27.551Z,3.20
2022-10-20T01:14:41.002Z,2.70
2022-10-20T01:17:28.774Z,3.03
2022-10-20T01:20:22.814Z,3.13
2022-10-20T01:23:11.059Z,3.00
2022-10-20T01:26:03.679Z,2.97
2022-10-20T01:28:51.747Z,3.28
2022-10-20T01:31:33.862Z,3.40
2022-10-20T01:34:18.327Z,2.83
2022-10-20T01:36:55.581Z,3.20
2022-10-20T01:39:30.947Z,3.28
2022-10-20T01:42:04.840Z,2.72
2022-10-20T01:44:33.502Z,2.85
2022-10-20T01:47:01.034Z,2.53
2022-10-20T01:49:27.693Z,2.70
2022-10-20T01:51:55.272Z,2.55
2022-10-20T01:54:23.538Z,2.90
2022-10-20T01:57:22.872Z,2.75
2022-10-20T02:00:12.426Z,3.10
2022-10-20T02:03:14.725Z,2.88
2022-10-20T02:06:24.707Z,3.20
2022-10-20T02:08:54.487Z,2.90
2022-10-20T02:11:45.292Z,2.90
2022-10-20T02:14:14.747Z,3.08
2022-10-20T02:16:47.895Z,2.28
2022-10-20T02:19:17.906Z,3.13
2022-10-20T02:21:46.857Z,3.10
2022-10-20T02:24:15.950Z,2.90
2022-10-20T02:26:43.619Z,3.85
2022-10-20T02:29:25.281Z,3.35
2022-10-20T02:31:51.865Z,2.60
2022-10-20T02:34:18.399Z,3.20
2022-10-20T02:36:45.375Z,3.47
2022-10-20T02:39:12.534Z,2.97
2022-10-20T02:41:38.948Z,3.05
2022-10-20T02:44:05.410Z,3.42
2022-10-20T02:46:31.836Z,3.13
2022-10-20T02:48:58.246Z,3.38
2022-10-20T02:51:24.690Z,3.15
2022-10-20T02:53:51.150Z,3.10
2022-10-20T02:56:17.515Z,3.03
2022-10-20T02:58:43.902Z,3.20
2022-10-20T03:01:10.594Z,3.80
2022-10-20T03:03:37.048Z,3.13
2022-10-20T03:06:12.247Z,3.38
2022-10-20T03:08:38.674Z,3.70
2022-10-20T03:11:05.327Z,4.00
2022-10-20T03:13:31.965Z,4.15
2022-10-20T03:15:58.391Z,3.15
2022-10-20T03:18:24.853Z,3.60
2022-10-20T03:20:52.339Z,3.65
2022-10-20T03:23:20.133Z,3.40
2022-10-20T03:25:47.032Z,3.75
2022-10-20T03:28:13.587Z,3.35
2022-10-20T03:30:40.339Z,3.42
2022-10-20T03:33:06.858Z,3.60
2022-10-20T03:35:33.299Z,3.42
2022-10-20T03:37:59.692Z,3.95
2022-10-20T03:40:26.227Z,3.13
2022-10-20T03:42:52.652Z,3.67
2022-10-20T03:45:19.067Z,3.95
2022-10-20T03:47:45.454Z,3.72
2022-10-20T03:50:11.835Z,3.78
2022-10-20T03:52:38.378Z,3.92
2022-10-20T03:55:05.351Z,4.00
2022-10-20T03:57:31.726Z,4.13
2022-10-20T03:59:58.109Z,4.32
2022-10-20T04:02:33.751Z,4.25
2022-10-20T04:05:01.532Z,3.90
2022-10-20T04:07:28.059Z,4.35
2022-10-20T04:09:54.456Z,3.72
2022-10-20T04:12:20.844Z,3.72
2022-10-20T04:14:47.954Z,4.22
2022-10-20T04:17:14.598Z,4.68
2022-10-20T04:19:40.998Z,4.38
2022-10-20T04:22:07.396Z,4.28
2022-10-20T04:24:33.776Z,4.57
2022-10-20T04:27:00.180Z,5.28
2022-10-20T04:29:26.555Z,4.35
2022-10-20T04:31:52.935Z,5.13
2022-10-20T04:34:19.333Z,4.50
2022-10-20T04:36:45.725Z,5.75
2022-10-20T04:39:12.144Z,4.82
2022-10-20T04:41:38.534Z,5.38
2022-10-20T04:44:04.998Z,7.00
2022-10-20T04:46:31.425Z,5.75
2022-10-20T04:48:57.801Z,6.00
2022-10-20T04:51:24.395Z,5.32
2022-10-20T04:53:50.787Z,5.43
2022-10-20T04:56:19.721Z,5.75
2022-10-20T04:58:50.234Z,5.90
2022-10-20T05:01:17.011Z,5.40
2022-10-20T05:03:43.670Z,6.30
2022-10-20T05:06:09.983Z,6.75
2022-10-20T05:08:36.606Z,5.90
2022-10-20T05:11:03.382Z,5.35
2022-10-20T05:13:29.788Z,5.63
2022-10-20T05:15:56.183Z,5.55
2022-10-20T05:18:22.669Z,5.68
2022-10-20T05:21:07.664Z,6.43
2022-10-20T05:23:35.366Z,5.47
2022-10-20T05:26:05.901Z,5.78
2022-10-20T05:28:32.315Z,5.15
2022-10-20T05:31:06.755Z,5.47
2022-10-20T05:33:34.190Z,5.70
2022-10-20T05:36:00.826Z,6.32
2022-10-20T05:38:27.331Z,5.75
2022-10-20T05:40:53.710Z,6.47
2022-10-20T05:43:20.123Z,6.72
2022-10-20T05:45:46.498Z,6.40
2022-10-20T05:48:12.897Z,5.85
2022-10-20T05:50:39.300Z,6.63
2022-10-20T05:53:05.701Z,5.80
2022-10-20T05:55:32.930Z,7.20
2022-10-20T05:58:01.907Z,7.07
2022-10-20T06:00:31.226Z,7.03
2022-10-20T06:02:57.896Z,7.50
2022-10-20T06:05:24.343Z,7.93
2022-10-20T06:07:54.367Z,7.68
2022-10-20T06:10:20.755Z,6.95
2022-10-20T06:12:47.130Z,7.63
2022-10-20T06:15:13.524Z,7.30
2022-10-20T06:17:39.905Z,7.85
2022-10-20T06:20:06.599Z,8.23
2022-10-20T06:22:32.991Z,8.70
2022-10-20T06:24:59.402Z,8.25
2022-10-20T06:27:25.785Z,8.93
2022-10-20T06:29:54.683Z,8.18
2022-10-20T06:32:21.072Z,8.20
2022-10-20T06:34:47.480Z,8.63
2022-10-20T06:37:13.855Z,7.80
2022-10-20T06:39:40.238Z,9.85
2022-10-20T06:42:09.644Z,8.10
2022-10-20T06:44:44.592Z,8.48
2022-10-20T06:47:10.967Z,9.68
2022-10-20T06:49:37.355Z,7.35
2022-10-20T06:52:04.083Z,7.82
2022-10-20T06:54:30.551Z,8.15
2022-10-20T06:56:56.932Z,7.85
2022-10-20T06:59:23.343Z,7.78
2022-10-20T07:01:49.791Z,8.10
2022-10-20T07:04:16.667Z,7.38
2022-10-20T07:06:44.676Z,6.60
2022-10-20T07:09:17.148Z,6.40
2022-10-20T07:11:44.037Z,6.35
2022-10-20T07:14:13.581Z,6.93
2022-10-20T07:16:39.960Z,6.63
2022-10-20T07:19:06.340Z,6.78
2022-10-20T07:21:36.028Z,6.18
2022-10-20T07:26:34.172Z,5.88
2022-10-20T07:29:01.629Z,6.65
2022-10-20T07:31:39.774Z,6.78
2022-10-20T07:36:56.176Z,6.15
2022-10-20T07:39:23.131Z,6.20
2022-10-20T07:41:49.775Z,6.28
2022-10-20T07:44:16.625Z,6.05
2022-10-20T07:46:43.620Z,5.43
2022-10-20T07:49:42.909Z,5.32
2022-10-20T07:51:56.720Z,6.68
2022-10-20T07:54:23.157Z,6.10
2022-10-20T07:56:49.721Z,5.82
2022-10-20T07:59:16.777Z,6.20
2022-10-20T08:01:43.889Z,5.72
2022-10-20T08:04:10.911Z,5.57
2022-10-20T08:06:39.248Z,5.57
2022-10-20T08:09:05.987Z,5.88
2022-10-20T08:11:32.452Z,5.80
2022-10-20T08:13:58.858Z,5.63
2022-10-20T08:16:34.068Z,5.53
2022-10-20T08:19:38.207Z,5.45
2022-10-20T08:21:48.646Z,5.55
2022-10-20T08:24:15.075Z,5.40
2022-10-20T08:26:41.459Z,5.90
2022-10-20T08:29:09.075Z,5.75
2022-10-20T08:31:35.532Z,5.68
2022-10-20T08:34:01.966Z,5.57
2022-10-20T08:36:28.486Z,5.55
2022-10-20T08:38:56.334Z,5.70
2022-10-20T08:41:27.101Z,5.38
2022-10-20T08:43:57.329Z,6.13
2022-10-20T08:46:32.198Z,5.82
2022-10-20T08:48:59.075Z,5.80
2022-10-20T08:51:33.434Z,5.20
2022-10-20T08:54:02.447Z,5.10
2022-10-20T08:56:30.702Z,5.07
2022-10-20T08:58:57.338Z,4.68
2022-10-20T09:01:32.517Z,4.95
2022-10-20T09:04:04.467Z,4.78
2022-10-20T09:06:31.149Z,5.20
2022-10-20T09:08:57.940Z,4.75
2022-10-20T09:11:32.045Z,5.45
2022-10-20T09:13:58.518Z,5.50
2022-10-20T09:16:41.759Z,5.53
2022-10-20T09:19:21.179Z,4.57
2022-10-20T09:21:53.242Z,4.63
2022-10-20T09:24:22.246Z,5.10
2022-10-20T09:26:58.772Z,5.43
2022-10-20T09:29:37.367Z,5.35
2022-10-20T09:32:34.001Z,4.93
2022-10-20T09:34:50.162Z,5.57
2022-10-20T09:37:19.631Z,5.57
2022-10-20T09:39:58.108Z,5.07
2022-10-20T09:42:34.309Z,4.75
2022-10-20T09:45:04.539Z,5.35
2022-10-20T09:47:33.367Z,5.45
2022-10-20T09:50:02.939Z,6.32
2022-10-20T09:52:34.513Z,4.30
2022-10-20T09:55:17.029Z,5.07
2022-10-20T09:57:47.724Z,4.90
2022-10-20T10:00:37.154Z,4.38
2022-10-20T10:03:22.183Z,5.13
2022-10-20T10:05:59.469Z,4.47
2022-10-20T10:08:29.711Z,5.30
2022-10-20T10:11:05.097Z,4.18
2022-10-20T10:13:40.771Z,4.68
2022-10-20T10:16:10.424Z,3.75
2022-10-20T10:18:38.355Z,4.10
2022-10-20T10:21:11.232Z,4.50
2022-10-20T10:23:52.490Z,4.47
2022-10-20T10:26:45.314Z,3.75
2022-10-20T10:29:35.493Z,4.28
2022-10-20T10:32:13.841Z,4.07
2022-10-20T10:35:01.085Z,4.45
2022-10-20T10:37:32.286Z,4.18
2022-10-20T10:40:03.590Z,3.40
2022-10-20T10:42:36.483Z,4.25
2022-10-20T10:45:19.404Z,3.90
2022-10-20T10:48:12.555Z,3.88
2022-10-20T10:50:57.094Z,4.05
2022-10-20T10:53:34.075Z,4.15
2022-10-20T10:56:11.468Z,3.45
2022-10-20T10:58:51.203Z,3.80
2022-10-20T11:01:40.486Z,3.38
2022-10-20T11:04:29.777Z,3.25
2022-10-20T11:07:24.508Z,3.25
2022-10-20T11:10:20.074Z,2.90
2022-10-20T11:13:11.203Z,2.60
2022-10-20T11:15:46.769Z,3.08
2022-10-20T11:18:39.583Z,2.88
2022-10-20T11:21:18.792Z,2.95
2022-10-20T11:24:12.828Z,2.75
2022-10-20T11:26:43.062Z,2.85
2022-10-20T11:29:19.371Z,2.87
2022-10-20T11:31:54.561Z,2.63
2022-10-20T11:34:37.450Z,3.22
2022-10-20T11:37:13.069Z,3.25
2022-10-20T11:39:51.991Z,2.92
2022-10-20T11:42:41.992Z,2.80
2022-10-20T11:45:34.350Z,3.13
2022-10-20T11:48:11.313Z,3.15
2022-10-20T11:50:39.729Z,2.97
2022-10-20T11:53:22.598Z,3.03
2022-10-20T11:56:05.765Z,2.63
2022-10-20T11:58:45.733Z,3.63
2022-10-20T12:01:35.683Z,3.20
2022-10-20T12:04:30.031Z,2.67
2022-10-20T12:07:36.384Z,2.92
2022-10-20T12:10:27.855Z,3.45
2022-10-20T12:13:21.248Z,2.85
2022-10-20T12:15:50.316Z,2.63
2022-10-20T12:18:30.232Z,3.28
2022-10-20T12:21:01.557Z,2.72
2022-10-20T12:23:43.056Z,3.20
2022-10-20T12:26:34.268Z,3.05
2022-10-20T12:32:12.691Z,2.75
2022-10-20T12:34:41.169Z,2.72
2022-10-20T12:37:26.962Z,3.00
2022-10-20T12:39:55.690Z,2.83
2022-10-20T12:42:36.447Z,2.65
2022-10-20T12:45:04.732Z,3.35
2022-10-20T12:47:33.396Z,2.38
2022-10-20T12:50:04.479Z,2.88
2022-10-20T12:55:06.992Z,2.58
2022-10-20T12:57:38.090Z,2.90
2022-10-20T13:00:07.624Z,2.20
2022-10-20T13:02:44.989Z,3.50
2022-10-20T13:05:14.357Z,2.63
2022-10-20T13:07:46.912Z,2.70
2022-10-20T13:10:38.637Z,2.90
2022-10-20T13:13:04.971Z,2.88
2022-10-20T13:15:38.987Z,3.10
2022-10-20T13:18:11.554Z,2.63
2022-10-20T13:21:00.057Z,2.90
2022-10-20T13:23:41.171Z,2.78
2022-10-20T13:28:49.228Z,2.67
2022-10-20T13:31:24.437Z,2.97
2022-10-20T13:34:18.139Z,3.17
2022-10-20T13:37:07.414Z,2.65
2022-10-20T13:39:41.130Z,3.40
2022-10-20T13:42:29.864Z,3.20
2022-10-20T13:45:15.054Z,3.17
2022-10-20T13:47:48.093Z,2.40
2022-10-20T13:50:20.147Z,3.15
2022-10-20T13:52:50.706Z,2.85
2022-10-20T13:55:26.692Z,3.30
2022-10-20T13:57:56.077Z,2.63
2022-10-20T14:00:29.411Z,2.50
2022-10-20T14:02:59.150Z,2.65
2022-10-20T14:05:27.443Z,2.90
2022-10-20T14:07:54.893Z,2.65
2022-10-20T14:10:42.903Z,2.40
2022-10-20T14:13:14.534Z,2.65
2022-10-20T14:15:48.423Z,2.38
2022-10-20T14:18:30.507Z,3.03
2022-10-20T14:21:03.106Z,2.60
2022-10-20T14:23:41.847Z,2.38
2022-10-20T14:26:14.034Z,2.58
2022-10-20T14:28:43.079Z,2.40
2022-10-20T14:31:14.439Z,2.60
2022-10-20T14:33:44.067Z,2.40
2022-10-20T14:36:20.257Z,2.35
2022-10-20T14:38:49.842Z,2.13
2022-10-20T14:41:26.296Z,2.10
2022-10-20T14:43:58.962Z,2.50
2022-10-20T14:46:35.157Z,2.70
2022-10-20T14:49:03.197Z,2.63
2022-10-20T14:51:32.502Z,2.50
2022-10-20T14:54:20.883Z,2.28
2022-10-20T14:56:50.005Z,2.42
2022-10-20T14:59:28.275Z,2.38
2022-10-20T15:02:18.695Z,2.40
2022-10-20T15:04:46.502Z,3.22
2022-10-20T15:07:27.415Z,2.63
2022-10-20T15:10:06.008Z,2.55
2022-10-20T15:12:42.515Z,2.50
2022-10-20T15:15:11.588Z,2.15
2022-10-20T15:17:44.348Z,2.80
2022-10-20T15:20:33.357Z,3.10
2022-10-20T15:23:14.851Z,2.42
2022-10-20T15:26:06.155Z,2.55
2022-10-20T15:31:18.236Z,2.65
2022-10-20T15:33:44.630Z,2.60
2022-10-20T15:36:16.443Z,3.13
2022-10-20T15:38:43.286Z,2.75
2022-10-20T15:41:21.182Z,3.05
2022-10-20T15:43:47.574Z,2.60
2022-10-20T15:46:15.477Z,3.40
2022-10-20T15:48:43.173Z,3.08
2022-10-20T15:51:25.999Z,3.63
2022-10-20T15:53:54.129Z,3.10
2022-10-20T15:56:21.019Z,3.53
2022-10-20T15:58:49.189Z,3.70
2022-10-20T16:01:18.995Z,3.97
2022-10-20T16:03:46.949Z,4.05
2022-10-20T16:06:15.483Z,5.55
2022-10-20T16:08:43.704Z,4.30
2022-10-20T16:11:11.848Z,5.05
2022-10-20T16:13:39.081Z,4.57
2022-10-20T16:16:07.385Z,4.35
2022-10-20T16:18:33.888Z,4.78
2022-10-20T16:21:00.964Z,4.35
2022-10-20T16:23:27.348Z,4.88
2022-10-20T16:25:53.706Z,4.50
2022-10-20T16:28:20.185Z,4.50
2022-10-20T16:30:46.590Z,5.38
2022-10-20T16:33:13.016Z,5.40
2022-10-20T16:35:43.556Z,5.43
2022-10-20T16:38:10.639Z,4.65
2022-10-20T16:40:37.127Z,4.80
2022-10-20T16:43:03.550Z,4.45
2022-10-20T16:45:29.943Z,4.70
2022-10-20T16:47:56.361Z,4.40
2022-10-20T16:50:22.730Z,4.80
2022-10-20T16:52:49.099Z,5.05
2022-10-20T16:55:15.465Z,4.65
2022-10-20T16:57:41.830Z,5.38
2022-10-20T17:00:09.289Z,5.07
2022-10-20T17:02:36.395Z,5.55
2022-10-20T17:05:05.412Z,5.57
2022-10-20T17:07:34.976Z,5.40
2022-10-20T17:10:01.614Z,5.47
2022-10-20T17:12:27.988Z,5.97
2022-10-20T17:14:54.383Z,5.50
2022-10-20T17:17:20.836Z,5.78
2022-10-20T17:19:47.247Z,6.05
2022-10-20T17:22:13.662Z,5.78
2022-10-20T17:24:40.055Z,6.40
2022-10-20T17:27:06.422Z,6.88
2022-10-20T17:29:32.811Z,7.13
2022-10-20T17:31:59.186Z,6.70
2022-10-20T17:34:25.569Z,6.25
2022-10-20T17:36:51.956Z,6.78
2022-10-20T17:39:20.463Z,6.43
2022-10-20T17:41:46.847Z,6.88
2022-10-20T17:44:13.217Z,6.95
2022-10-20T17:46:39.629Z,6.57
2022-10-20T17:49:06.203Z,6.65
2022-10-20T17:51:34.839Z,6.70
2022-10-20T17:54:02.338Z,7.25
2022-10-20T17:56:31.965Z,7.15
2022-10-20T17:59:00.305Z,6.80
2022-10-20T18:01:32.328Z,7.25
2022-10-20T18:04:10.733Z,6.93
2022-10-20T18:06:38.212Z,7.20
2022-10-20T18:09:13.291Z,7.07
2022-10-20T18:11:42.773Z,7.30
2022-10-20T18:14:09.242Z,7.05
2022-10-20T18:16:37.227Z,7.05
2022-10-20T18:19:04.508Z,7.78
2022-10-20T18:21:31.701Z,7.90
2022-10-20T18:24:03.231Z,8.00
2022-10-20T18:26:31.702Z,7.50
2022-10-20T18:28:59.812Z,7.95
2022-10-20T18:31:30.392Z,7.32
2022-10-20T18:34:04.093Z,7.43
2022-10-20T18:36:31.281Z,8.13
2022-10-20T18:38:59.265Z,7.03
2022-10-20T18:41:28.136Z,7.78
2022-10-20T18:43:59.514Z,8.15
2022-10-20T18:46:27.290Z,8.27
2022-10-20T18:48:54.066Z,7.47
2022-10-20T18:51:20.674Z,8.40
2022-10-20T18:53:47.334Z,7.78
2022-10-20T18:56:14.886Z,8.10
2022-10-20T18:58:47.204Z,8.25
2022-10-20T19:01:15.517Z,8.60
2022-10-20T19:03:45.386Z,7.85
2022-10-20T19:06:18.248Z,7.70
2022-10-20T19:08:44.876Z,8.32
2022-10-20T19:11:13.413Z,7.82
2022-10-20T19:13:39.882Z,8.20
2022-10-20T19:16:09.830Z,7.68
2022-10-20T19:18:38.869Z,7.72
2022-10-20T19:21:06.374Z,8.02
2022-10-20T19:23:35.355Z,8.07
2022-10-20T19:26:05.616Z,8.18
2022-10-20T19:28:33.928Z,8.67
2022-10-20T19:31:01.332Z,7.82
2022-10-20T19:33:28.495Z,8.30
2022-10-20T19:35:55.072Z,8.30
2022-10-20T19:38:21.546Z,7.82
2022-10-20T19:40:47.993Z,8.38
2022-10-20T19:43:14.391Z,7.85
2022-10-20T19:45:40.783Z,7.57
2022-10-20T19:48:07.178Z,8.68
2022-10-20T19:50:34.464Z,8.65
2022-10-20T19:53:00.857Z,7.90
2022-10-20T19:55:27.223Z,8.02
2022-10-20T19:57:53.608Z,8.93
2022-10-20T20:00:20.084Z,7.53
2022-10-20T20:02:46.450Z,8.82
2022-10-20T20:05:12.842Z,8.52
2022-10-20T20:07:39.974Z,9.02
2022-10-20T20:10:06.799Z,8.02
2022-10-20T20:12:33.169Z,8.90
2022-10-20T20:14:59.648Z,8.88
2022-10-20T20:17:26.039Z,8.98
2022-10-20T20:19:52.467Z,9.13
2022-10-20T20:22:18.843Z,8.80
2022-10-20T20:24:45.259Z,9.02
2022-10-20T20:27:11.701Z,8.55
2022-10-20T20:29:38.111Z,8.65
2022-10-20T20:32:04.574Z,8.18
2022-10-20T20:34:30.968Z,8.65
2022-10-20T20:36:57.358Z,8.57
2022-10-20T20:39:24.119Z,7.88
2022-10-20T20:41:50.514Z,8.15
2022-10-20T20:44:16.995Z,8.95
2022-10-20T20:46:43.499Z,9.00
2022-10-20T20:49:09.949Z,8.10
2022-10-20T20:51:36.376Z,8.35
2022-10-20T20:54:03.492Z,7.97
2022-10-20T20:56:29.871Z,8.55
2022-10-20T20:58:56.253Z,7.93
2022-10-20T21:01:23.691Z,8.95
2022-10-20T21:03:54.634Z,8.10
2022-10-20T21:06:25.640Z,8.07
2022-10-20T21:08:59.923Z,7.60
2022-10-20T21:11:27.128Z,9.02
2022-10-20T21:13:55.518Z,8.80
2022-10-20T21:16:25.681Z,7.60
2022-10-20T21:18:54.602Z,7.83
2022-10-20T21:21:23.423Z,8.20
2022-10-20T21:23:50.614Z,7.75
2022-10-20T21:26:18.685Z,7.82
2022-10-20T21:28:45.831Z,7.63
2022-10-20T21:31:15.248Z,7.53
2022-10-20T21:33:42.546Z,8.13
2022-10-20T21:36:11.111Z,7.75
2022-10-20T21:38:38.867Z,8.02
2022-10-20T21:41:10.851Z,7.35
2022-10-20T21:43:40.542Z,7.40
2022-10-20T21:46:19.357Z,8.90
2022-10-20T21:48:48.781Z,7.30
2022-10-20T21:51:20.936Z,7.43
2022-10-20T21:53:47.768Z,8.15
2022-10-20T21:56:15.686Z,8.40
2022-10-20T21:58:43.483Z,7.70
2022-10-20T22:01:14.736Z,8.23
2022-10-20T22:03:42.160Z,7.20
2022-10-20T22:06:10.354Z,7.93
2022-10-20T22:08:42.430Z,7.88
2022-10-20T22:11:12.484Z,7.70
2022-10-20T22:13:38.915Z,7.85
2022-10-20T22:16:06.892Z,8.00
2022-10-20T22:18:33.279Z,8.90
2022-10-20T22:21:13.295Z,8.80
2022-10-20T22:23:40.707Z,8.45
2022-10-20T22:26:07.438Z,8.75
2022-10-20T22:28:33.987Z,8.70
2022-10-20T22:33:27.679Z,7.80
2022-10-20T22:35:54.062Z,9.80
2022-10-20T22:38:20.467Z,10.18
2022-10-20T22:40:46.856Z,9.40
2022-10-20T22:43:13.438Z,10.02
2022-10-20T22:45:39.831Z,9.30
2022-10-20T22:48:06.372Z,9.80
2022-10-20T22:50:32.811Z,9.93
2022-10-20T22:52:59.263Z,10.23
2022-10-20T22:55:25.652Z,9.93
2022-10-20T22:57:52.177Z,9.15
2022-10-20T23:00:19.703Z,9.27
2022-10-20T23:02:46.102Z,9.25
2022-10-20T23:05:12.523Z,9.35
2022-10-20T23:07:39.515Z,8.60
2022-10-20T23:10:06.699Z,9.60
2022-10-20T23:12:33.405Z,10.68
2022-10-20T23:14:59.783Z,10.00
2022-10-20T23:17:26.540Z,10.13
2022-10-20T23:19:52.931Z,9.07
2022-10-20T23:22:19.311Z,9.73
2022-10-20T23:24:46.310Z,9.30
2022-10-20T23:27:12.687Z,8.85
2022-10-20T23:29:39.070Z,8.93
2022-10-20T23:32:05.507Z,9.15
2022-10-20T23:34:31.953Z,10.30
2022-10-20T23:36:58.399Z,10.73
2022-10-20T23:39:24.795Z,10.77
2022-10-20T23:41:51.184Z,10.07
2022-10-20T23:44:17.573Z,10.13
2022-10-20T23:46:43.991Z,9.52
2022-10-20T23:49:10.409Z,10.25
2022-10-20T23:51:36.806Z,10.10
2022-10-20T23:54:03.450Z,9.40
2022-10-20T23:56:29.846Z,10.02
2022-10-20T23:58:56.293Z,9.40
